sensor_id;sensor_type;location;lat;lon;timestamp;P1;durP1;ratioP1;P2;durP2;ratioP2
53271;SDS011;39160;48.580;7.756;2023-06-22T00:01:50;7.47;;;5.00;;
53271;SDS011;39160;48.580;7.756;2023-06-22T00:06:41;6.80;;;5.10;;
53271;SDS011;39160;48.580;7.756;2023-06-22T00:11:31;7.82;;;4.90;;
53271;SDS011;39160;48.580;7.756;2023-06-22T00:16:23;7.53;;;5.00;;
53271;SDS011;39160;48.580;7.756;2023-06-22T00:21:14;11.68;;;5.50;;
53271;SDS011;39160;48.580;7.756;2023-06-22T00:26:04;7.60;;;4.88;;
53271;SDS011;39160;48.580;7.756;2023-06-22T00:30:55;11.38;;;5.25;;
53271;SDS011;39160;48.580;7.756;2023-06-22T00:35:46;9.10;;;5.50;;
53271;SDS011;39160;48.580;7.756;2023-06-22T00:40:36;8.57;;;4.97;;
53271;SDS011;39160;48.580;7.756;2023-06-22T00:45:27;6.97;;;4.85;;
53271;SDS011;39160;48.580;7.756;2023-06-22T00:50:19;9.27;;;5.43;;
53271;SDS011;39160;48.580;7.756;2023-06-22T00:55:12;8.52;;;4.85;;
53271;SDS011;39160;48.580;7.756;2023-06-22T01:00:04;6.60;;;4.75;;
53271;SDS011;39160;48.580;7.756;2023-06-22T01:04:57;7.60;;;4.35;;
53271;SDS011;39160;48.580;7.756;2023-06-22T01:15:10;7.22;;;4.80;;
53271;SDS011;39160;48.580;7.756;2023-06-22T01:20:04;8.48;;;4.63;;
53271;SDS011;39160;48.580;7.756;2023-06-22T01:30:00;6.80;;;4.85;;
53271;SDS011;39160;48.580;7.756;2023-06-22T01:34:54;8.18;;;3.85;;
53271;SDS011;39160;48.580;7.756;2023-06-22T01:39:45;6.80;;;4.40;;
53271;SDS011;39160;48.580;7.756;2023-06-22T01:44:36;6.85;;;4.78;;
53271;SDS011;39160;48.580;7.756;2023-06-22T01:49:27;6.55;;;4.43;;
53271;SDS011;39160;48.580;7.756;2023-06-22T01:54:18;6.80;;;4.47;;
53271;SDS011;39160;48.580;7.756;2023-06-22T02:04:22;6.25;;;4.10;;
53271;SDS011;39160;48.580;7.756;2023-06-22T02:09:33;5.22;;;3.97;;
53271;SDS011;39160;48.580;7.756;2023-06-22T02:14:27;5.30;;;4.23;;
53271;SDS011;39160;48.580;7.756;2023-06-22T02:19:22;6.60;;;3.97;;
53271;SDS011;39160;48.580;7.756;2023-06-22T02:24:14;6.55;;;4.35;;
53271;SDS011;39160;48.580;7.756;2023-06-22T02:29:05;6.35;;;3.70;;
53271;SDS011;39160;48.580;7.756;2023-06-22T02:33:57;6.72;;;4.28;;
53271;SDS011;39160;48.580;7.756;2023-06-22T02:38:48;9.40;;;4.18;;
53271;SDS011;39160;48.580;7.756;2023-06-22T02:43:39;5.97;;;4.85;;
53271;SDS011;39160;48.580;7.756;2023-06-22T02:48:29;6.45;;;4.15;;
53271;SDS011;39160;48.580;7.756;2023-06-22T02:53:21;8.20;;;4.70;;
53271;SDS011;39160;48.580;7.756;2023-06-22T02:58:11;7.55;;;4.30;;
53271;SDS011;39160;48.580;7.756;2023-06-22T03:03:02;8.57;;;4.70;;
53271;SDS011;39160;48.580;7.756;2023-06-22T03:07:53;7.88;;;4.72;;
53271;SDS011;39160;48.580;7.756;2023-06-22T03:12:44;8.25;;;5.43;;
53271;SDS011;39160;48.580;7.756;2023-06-22T03:17:35;7.82;;;5.30;;
53271;SDS011;39160;48.580;7.756;2023-06-22T03:22:26;7.43;;;4.57;;
53271;SDS011;39160;48.580;7.756;2023-06-22T03:27:17;9.95;;;4.97;;
53271;SDS011;39160;48.580;7.756;2023-06-22T03:32:08;9.00;;;4.85;;
53271;SDS011;39160;48.580;7.756;2023-06-22T03:36:59;7.35;;;4.57;;
53271;SDS011;39160;48.580;7.756;2023-06-22T03:41:50;7.07;;;5.03;;
53271;SDS011;39160;48.580;7.756;2023-06-22T03:46:40;7.25;;;4.53;;
53271;SDS011;39160;48.580;7.756;2023-06-22T03:51:32;9.07;;;4.65;;
53271;SDS011;39160;48.580;7.756;2023-06-22T03:56:23;6.50;;;4.15;;
53271;SDS011;39160;48.580;7.756;2023-06-22T04:01:13;12.98;;;6.90;;
53271;SDS011;39160;48.580;7.756;2023-06-22T04:06:04;8.55;;;5.15;;
53271;SDS011;39160;48.580;7.756;2023-06-22T04:10:55;9.23;;;4.80;;
53271;SDS011;39160;48.580;7.756;2023-06-22T04:15:46;8.18;;;4.68;;
53271;SDS011;39160;48.580;7.756;2023-06-22T04:20:37;6.28;;;4.25;;
53271;SDS011;39160;48.580;7.756;2023-06-22T04:25:27;11.15;;;5.03;;
53271;SDS011;39160;48.580;7.756;2023-06-22T04:30:18;8.82;;;5.20;;
53271;SDS011;39160;48.580;7.756;2023-06-22T04:35:09;10.50;;;5.88;;
53271;SDS011;39160;48.580;7.756;2023-06-22T04:40:01;9.93;;;5.53;;
53271;SDS011;39160;48.580;7.756;2023-06-22T04:44:53;9.93;;;4.65;;
53271;SDS011;39160;48.580;7.756;2023-06-22T04:49:44;9.00;;;4.97;;
53271;SDS011;39160;48.580;7.756;2023-06-22T04:54:35;7.25;;;4.88;;
53271;SDS011;39160;48.580;7.756;2023-06-22T04:59:27;7.88;;;4.25;;
53271;SDS011;39160;48.580;7.756;2023-06-22T05:04:20;8.23;;;4.88;;
53271;SDS011;39160;48.580;7.756;2023-06-22T05:09:12;8.55;;;4.70;;
53271;SDS011;39160;48.580;7.756;2023-06-22T05:14:03;9.80;;;5.43;;
53271;SDS011;39160;48.580;7.756;2023-06-22T05:18:54;7.18;;;4.22;;
53271;SDS011;39160;48.580;7.756;2023-06-22T05:23:45;9.60;;;5.00;;
53271;SDS011;39160;48.580;7.756;2023-06-22T05:28:36;10.60;;;5.03;;
53271;SDS011;39160;48.580;7.756;2023-06-22T05:33:26;8.43;;;4.72;;
53271;SDS011;39160;48.580;7.756;2023-06-22T05:38:17;6.88;;;4.43;;
53271;SDS011;39160;48.580;7.756;2023-06-22T05:43:08;10.18;;;4.70;;
53271;SDS011;39160;48.580;7.756;2023-06-22T05:47:58;8.93;;;4.75;;
53271;SDS011;39160;48.580;7.756;2023-06-22T05:52:49;13.02;;;5.28;;
53271;SDS011;39160;48.580;7.756;2023-06-22T05:57:40;7.22;;;4.80;;
53271;SDS011;39160;48.580;7.756;2023-06-22T06:02:30;11.35;;;5.63;;
53271;SDS011;39160;48.580;7.756;2023-06-22T06:07:21;9.75;;;4.50;;
53271;SDS011;39160;48.580;7.756;2023-06-22T06:12:12;9.77;;;5.28;;
53271;SDS011;39160;48.580;7.756;2023-06-22T06:17:03;9.38;;;4.70;;
53271;SDS011;39160;48.580;7.756;2023-06-22T06:21:53;7.32;;;4.40;;
53271;SDS011;39160;48.580;7.756;2023-06-22T06:26:44;6.90;;;4.53;;
53271;SDS011;39160;48.580;7.756;2023-06-22T06:31:35;13.65;;;4.90;;
53271;SDS011;39160;48.580;7.756;2023-06-22T06:36:26;8.23;;;5.50;;
53271;SDS011;39160;48.580;7.756;2023-06-22T06:41:16;7.18;;;4.60;;
53271;SDS011;39160;48.580;7.756;2023-06-22T06:46:07;11.63;;;5.38;;
53271;SDS011;39160;48.580;7.756;2023-06-22T06:50:58;13.45;;;7.07;;
53271;SDS011;39160;48.580;7.756;2023-06-22T06:55:49;10.77;;;5.97;;
53271;SDS011;39160;48.580;7.756;2023-06-22T07:00:39;9.90;;;5.15;;
53271;SDS011;39160;48.580;7.756;2023-06-22T07:05:30;9.80;;;5.22;;
53271;SDS011;39160;48.580;7.756;2023-06-22T07:10:21;11.48;;;6.93;;
53271;SDS011;39160;48.580;7.756;2023-06-22T07:15:12;9.35;;;5.55;;
53271;SDS011;39160;48.580;7.756;2023-06-22T07:20:03;8.27;;;5.20;;
53271;SDS011;39160;48.580;7.756;2023-06-22T07:25:01;8.20;;;5.07;;
53271;SDS011;39160;48.580;7.756;2023-06-22T07:29:58;7.85;;;4.63;;
53271;SDS011;39160;48.580;7.756;2023-06-22T07:34:49;11.38;;;5.20;;
53271;SDS011;39160;48.580;7.756;2023-06-22T07:39:40;11.18;;;4.63;;
53271;SDS011;39160;48.580;7.756;2023-06-22T07:44:32;9.32;;;4.95;;
53271;SDS011;39160;48.580;7.756;2023-06-22T07:49:23;8.48;;;4.72;;
53271;SDS011;39160;48.580;7.756;2023-06-22T07:54:13;7.03;;;4.72;;
53271;SDS011;39160;48.580;7.756;2023-06-22T07:59:05;8.15;;;4.80;;
53271;SDS011;39160;48.580;7.756;2023-06-22T08:03:56;10.75;;;5.45;;
53271;SDS011;39160;48.580;7.756;2023-06-22T08:08:47;9.52;;;4.93;;
53271;SDS011;39160;48.580;7.756;2023-06-22T08:13:38;6.63;;;4.78;;
53271;SDS011;39160;48.580;7.756;2023-06-22T08:18:29;9.15;;;4.95;;
53271;SDS011;39160;48.580;7.756;2023-06-22T08:23:20;8.63;;;5.35;;
53271;SDS011;39160;48.580;7.756;2023-06-22T08:28:10;9.02;;;5.03;;
53271;SDS011;39160;48.580;7.756;2023-06-22T08:33:03;10.23;;;5.40;;
53271;SDS011;39160;48.580;7.756;2023-06-22T08:37:53;9.43;;;6.15;;
53271;SDS011;39160;48.580;7.756;2023-06-22T08:42:46;8.35;;;4.88;;
53271;SDS011;39160;48.580;7.756;2023-06-22T08:47:38;9.40;;;5.68;;
53271;SDS011;39160;48.580;7.756;2023-06-22T08:52:29;11.77;;;6.35;;
53271;SDS011;39160;48.580;7.756;2023-06-22T08:57:20;8.48;;;4.07;;
53271;SDS011;39160;48.580;7.756;2023-06-22T09:02:12;8.27;;;4.65;;
53271;SDS011;39160;48.580;7.756;2023-06-22T09:07:02;7.55;;;5.10;;
53271;SDS011;39160;48.580;7.756;2023-06-22T09:11:54;11.43;;;5.32;;
53271;SDS011;39160;48.580;7.756;2023-06-22T09:16:44;7.75;;;4.85;;
53271;SDS011;39160;48.580;7.756;2023-06-22T09:21:35;14.40;;;5.30;;
53271;SDS011;39160;48.580;7.756;2023-06-22T09:26:26;9.23;;;4.70;;
53271;SDS011;39160;48.580;7.756;2023-06-22T09:31:16;8.85;;;5.90;;
53271;SDS011;39160;48.580;7.756;2023-06-22T09:36:07;8.27;;;5.35;;
53271;SDS011;39160;48.580;7.756;2023-06-22T09:40:58;11.65;;;5.22;;
53271;SDS011;39160;48.580;7.756;2023-06-22T09:45:48;12.07;;;5.55;;
53271;SDS011;39160;48.580;7.756;2023-06-22T09:50:39;8.05;;;5.10;;
53271;SDS011;39160;48.580;7.756;2023-06-22T09:55:29;8.43;;;4.57;;
53271;SDS011;39160;48.580;7.756;2023-06-22T10:00:20;7.68;;;4.45;;
53271;SDS011;39160;48.580;7.756;2023-06-22T10:05:11;12.35;;;5.30;;
53271;SDS011;39160;48.580;7.756;2023-06-22T10:10:02;9.90;;;5.70;;
53271;SDS011;39160;48.580;7.756;2023-06-22T10:14:53;10.38;;;5.35;;
53271;SDS011;39160;48.580;7.756;2023-06-22T10:19:44;9.05;;;5.25;;
53271;SDS011;39160;48.580;7.756;2023-06-22T10:24:34;10.05;;;5.20;;
53271;SDS011;39160;48.580;7.756;2023-06-22T10:29:25;10.18;;;5.28;;
53271;SDS011;39160;48.580;7.756;2023-06-22T10:34:15;8.68;;;5.47;;
53271;SDS011;39160;48.580;7.756;2023-06-22T10:39:06;10.30;;;4.40;;
53271;SDS011;39160;48.580;7.756;2023-06-22T10:43:57;9.52;;;5.20;;
53271;SDS011;39160;48.580;7.756;2023-06-22T10:48:48;10.73;;;4.80;;
53271;SDS011;39160;48.580;7.756;2023-06-22T10:53:38;13.13;;;5.47;;
53271;SDS011;39160;48.580;7.756;2023-06-22T10:58:29;10.90;;;4.40;;
53271;SDS011;39160;48.580;7.756;2023-06-22T11:03:20;12.15;;;5.57;;
53271;SDS011;39160;48.580;7.756;2023-06-22T11:08:10;8.68;;;5.22;;
53271;SDS011;39160;48.580;7.756;2023-06-22T11:13:01;8.60;;;5.57;;
53271;SDS011;39160;48.580;7.756;2023-06-22T11:17:54;8.33;;;4.97;;
53271;SDS011;39160;48.580;7.756;2023-06-22T11:22:44;8.98;;;5.50;;
53271;SDS011;39160;48.580;7.756;2023-06-22T11:27:35;6.65;;;4.80;;
53271;SDS011;39160;48.580;7.756;2023-06-22T11:32:25;11.07;;;5.38;;
53271;SDS011;39160;48.580;7.756;2023-06-22T11:37:16;10.15;;;5.32;;
53271;SDS011;39160;48.580;7.756;2023-06-22T11:42:07;10.02;;;5.25;;
53271;SDS011;39160;48.580;7.756;2023-06-22T11:46:59;15.43;;;6.85;;
53271;SDS011;39160;48.580;7.756;2023-06-22T11:51:50;8.20;;;4.93;;
53271;SDS011;39160;48.580;7.756;2023-06-22T11:56:41;9.38;;;5.65;;
53271;SDS011;39160;48.580;7.756;2023-06-22T12:01:32;9.27;;;5.75;;
53271;SDS011;39160;48.580;7.756;2023-06-22T12:06:23;9.63;;;6.25;;
53271;SDS011;39160;48.580;7.756;2023-06-22T12:11:13;9.75;;;4.93;;
53271;SDS011;39160;48.580;7.756;2023-06-22T12:16:04;13.35;;;5.32;;
53271;SDS011;39160;48.580;7.756;2023-06-22T12:20:55;9.60;;;5.00;;
53271;SDS011;39160;48.580;7.756;2023-06-22T12:25:45;10.65;;;4.60;;
53271;SDS011;39160;48.580;7.756;2023-06-22T12:30:36;12.55;;;5.72;;
53271;SDS011;39160;48.580;7.756;2023-06-22T12:35:26;9.93;;;5.70;;
53271;SDS011;39160;48.580;7.756;2023-06-22T12:40:17;13.10;;;6.22;;
53271;SDS011;39160;48.580;7.756;2023-06-22T12:45:08;12.00;;;5.68;;
53271;SDS011;39160;48.580;7.756;2023-06-22T12:49:59;8.07;;;5.28;;
53271;SDS011;39160;48.580;7.756;2023-06-22T12:54:50;9.18;;;5.88;;
53271;SDS011;39160;48.580;7.756;2023-06-22T12:59:42;11.85;;;4.90;;
53271;SDS011;39160;48.580;7.756;2023-06-22T13:04:32;8.85;;;5.30;;
53271;SDS011;39160;48.580;7.756;2023-06-22T13:09:23;7.95;;;5.45;;
53271;SDS011;39160;48.580;7.756;2023-06-22T13:14:14;9.83;;;6.10;;
53271;SDS011;39160;48.580;7.756;2023-06-22T13:19:06;10.23;;;5.85;;
53271;SDS011;39160;48.580;7.756;2023-06-22T13:23:56;7.72;;;4.47;;
53271;SDS011;39160;48.580;7.756;2023-06-22T13:28:47;11.75;;;5.53;;
53271;SDS011;39160;48.580;7.756;2023-06-22T13:33:38;8.43;;;5.45;;
53271;SDS011;39160;48.580;7.756;2023-06-22T13:38:30;10.85;;;5.18;;
53271;SDS011;39160;48.580;7.756;2023-06-22T13:43:22;8.85;;;5.22;;
53271;SDS011;39160;48.580;7.756;2023-06-22T13:48:13;10.33;;;4.57;;
53271;SDS011;39160;48.580;7.756;2023-06-22T13:53:03;10.03;;;4.37;;
53271;SDS011;39160;48.580;7.756;2023-06-22T13:57:54;12.17;;;5.33;;
53271;SDS011;39160;48.580;7.756;2023-06-22T14:02:45;12.90;;;4.97;;
53271;SDS011;39160;48.580;7.756;2023-06-22T14:07:35;8.27;;;4.70;;
53271;SDS011;39160;48.580;7.756;2023-06-22T14:12:27;7.22;;;4.93;;
53271;SDS011;39160;48.580;7.756;2023-06-22T14:17:18;10.25;;;4.25;;
53271;SDS011;39160;48.580;7.756;2023-06-22T14:22:13;6.38;;;4.40;;
53271;SDS011;39160;48.580;7.756;2023-06-22T14:27:04;9.63;;;5.10;;
53271;SDS011;39160;48.580;7.756;2023-06-22T14:31:57;5.25;;;4.15;;
53271;SDS011;39160;48.580;7.756;2023-06-22T14:36:49;10.05;;;4.03;;
53271;SDS011;39160;48.580;7.756;2023-06-22T14:41:39;5.53;;;3.57;;
53271;SDS011;39160;48.580;7.756;2023-06-22T14:46:30;11.37;;;4.87;;
53271;SDS011;39160;48.580;7.756;2023-06-22T14:51:20;8.77;;;5.00;;
53271;SDS011;39160;48.580;7.756;2023-06-22T15:05:53;7.97;;;4.07;;
53271;SDS011;39160;48.580;7.756;2023-06-22T15:10:45;8.30;;;4.15;;
53271;SDS011;39160;48.580;7.756;2023-06-22T15:15:35;11.65;;;5.28;;
53271;SDS011;39160;48.580;7.756;2023-06-22T15:20:26;7.47;;;3.33;;
53271;SDS011;39160;48.580;7.756;2023-06-22T15:25:17;10.55;;;4.43;;
53271;SDS011;39160;48.580;7.756;2023-06-22T15:30:07;9.02;;;4.10;;
53271;SDS011;39160;48.580;7.756;2023-06-22T15:34:58;10.20;;;4.03;;
53271;SDS011;39160;48.580;7.756;2023-06-22T15:39:49;7.95;;;4.78;;
53271;SDS011;39160;48.580;7.756;2023-06-22T15:44:40;11.82;;;4.45;;
53271;SDS011;39160;48.580;7.756;2023-06-22T15:49:31;8.68;;;4.55;;
53271;SDS011;39160;48.580;7.756;2023-06-22T15:54:21;10.00;;;3.90;;
53271;SDS011;39160;48.580;7.756;2023-06-22T15:59:12;11.10;;;3.43;;
53271;SDS011;39160;48.580;7.756;2023-06-22T16:04:02;8.00;;;3.45;;
53271;SDS011;39160;48.580;7.756;2023-06-22T16:08:53;8.27;;;3.30;;
53271;SDS011;39160;48.580;7.756;2023-06-22T16:13:47;13.95;;;3.92;;
53271;SDS011;39160;48.580;7.756;2023-06-22T16:18:37;7.72;;;3.40;;
53271;SDS011;39160;48.580;7.756;2023-06-22T16:23:30;8.23;;;3.40;;
53271;SDS011;39160;48.580;7.756;2023-06-22T16:28:22;7.07;;;3.83;;
53271;SDS011;39160;48.580;7.756;2023-06-22T16:33:12;9.25;;;3.65;;
53271;SDS011;39160;48.580;7.756;2023-06-22T16:38:03;6.10;;;3.50;;
53271;SDS011;39160;48.580;7.756;2023-06-22T16:42:53;11.13;;;4.00;;
53271;SDS011;39160;48.580;7.756;2023-06-22T16:47:45;9.02;;;4.15;;
53271;SDS011;39160;48.580;7.756;2023-06-22T16:52:37;9.13;;;3.80;;
53271;SDS011;39160;48.580;7.756;2023-06-22T16:57:28;6.50;;;3.92;;
53271;SDS011;39160;48.580;7.756;2023-06-22T17:02:19;15.65;;;4.00;;
53271;SDS011;39160;48.580;7.756;2023-06-22T17:07:17;9.52;;;4.53;;
53271;SDS011;39160;48.580;7.756;2023-06-22T17:12:09;8.05;;;3.85;;
53271;SDS011;39160;48.580;7.756;2023-06-22T17:17:00;12.90;;;3.33;;
53271;SDS011;39160;48.580;7.756;2023-06-22T17:21:53;8.20;;;3.22;;
53271;SDS011;39160;48.580;7.756;2023-06-22T17:26:51;4.35;;;2.05;;
53271;SDS011;39160;48.580;7.756;2023-06-22T17:31:42;5.97;;;2.05;;
53271;SDS011;39160;48.580;7.756;2023-06-22T17:36:41;4.10;;;2.55;;
53271;SDS011;39160;48.580;7.756;2023-06-22T17:41:39;5.13;;;2.22;;
53271;SDS011;39160;48.580;7.756;2023-06-22T17:46:34;4.13;;;2.05;;
53271;SDS011;39160;48.580;7.756;2023-06-22T17:51:26;3.78;;;2.88;;
53271;SDS011;39160;48.580;7.756;2023-06-22T17:56:17;5.05;;;2.28;;
53271;SDS011;39160;48.580;7.756;2023-06-22T18:01:13;4.07;;;2.00;;
53271;SDS011;39160;48.580;7.756;2023-06-22T18:06:03;4.22;;;2.05;;
53271;SDS011;39160;48.580;7.756;2023-06-22T18:10:55;7.25;;;2.50;;
53271;SDS011;39160;48.580;7.756;2023-06-22T18:15:49;3.78;;;1.95;;
53271;SDS011;39160;48.580;7.756;2023-06-22T18:20:41;5.18;;;2.30;;
53271;SDS011;39160;48.580;7.756;2023-06-22T18:25:32;7.28;;;2.03;;
53271;SDS011;39160;48.580;7.756;2023-06-22T18:30:24;7.18;;;2.22;;
53271;SDS011;39160;48.580;7.756;2023-06-22T18:35:17;2.28;;;1.67;;
53271;SDS011;39160;48.580;7.756;2023-06-22T18:40:08;3.13;;;1.30;;
53271;SDS011;39160;48.580;7.756;2023-06-22T18:45:11;1.58;;;1.20;;
53271;SDS011;39160;48.580;7.756;2023-06-22T18:50:15;1.85;;;1.20;;
53271;SDS011;39160;48.580;7.756;2023-06-22T18:55:27;1.63;;;1.30;;
53271;SDS011;39160;48.580;7.756;2023-06-22T19:00:29;1.73;;;1.10;;
53271;SDS011;39160;48.580;7.756;2023-06-22T19:05:41;3.33;;;0.90;;
53271;SDS011;39160;48.580;7.756;2023-06-22T19:15:35;1.77;;;1.25;;
53271;SDS011;39160;48.580;7.756;2023-06-22T19:20:31;2.75;;;1.88;;
53271;SDS011;39160;48.580;7.756;2023-06-22T19:25:27;3.95;;;1.35;;
53271;SDS011;39160;48.580;7.756;2023-06-22T19:30:21;4.13;;;1.48;;
53271;SDS011;39160;48.580;7.756;2023-06-22T19:35:12;2.88;;;1.75;;
53271;SDS011;39160;48.580;7.756;2023-06-22T19:40:13;3.45;;;1.38;;
53271;SDS011;39160;48.580;7.756;2023-06-22T19:45:05;4.18;;;1.17;;
53271;SDS011;39160;48.580;7.756;2023-06-22T19:50:00;1.27;;;0.90;;
53271;SDS011;39160;48.580;7.756;2023-06-22T19:54:52;1.95;;;1.15;;
53271;SDS011;39160;48.580;7.756;2023-06-22T19:59:43;1.10;;;0.75;;
53271;SDS011;39160;48.580;7.756;2023-06-22T20:04:36;2.17;;;1.27;;
53271;SDS011;39160;48.580;7.756;2023-06-22T20:09:27;3.95;;;1.10;;
53271;SDS011;39160;48.580;7.756;2023-06-22T20:14:19;1.80;;;0.85;;
53271;SDS011;39160;48.580;7.756;2023-06-22T20:19:10;2.40;;;1.38;;
53271;SDS011;39160;48.580;7.756;2023-06-22T20:24:07;3.90;;;0.80;;
53271;SDS011;39160;48.580;7.756;2023-06-22T20:28:59;2.13;;;1.00;;
53271;SDS011;39160;48.580;7.756;2023-06-22T20:34:11;1.60;;;0.98;;
53271;SDS011;39160;48.580;7.756;2023-06-22T20:39:01;1.77;;;0.95;;
53271;SDS011;39160;48.580;7.756;2023-06-22T20:43:52;3.05;;;1.15;;
53271;SDS011;39160;48.580;7.756;2023-06-22T20:48:43;1.77;;;1.00;;
53271;SDS011;39160;48.580;7.756;2023-06-22T20:53:34;3.17;;;1.20;;
53271;SDS011;39160;48.580;7.756;2023-06-22T20:58:25;1.27;;;0.90;;
53271;SDS011;39160;48.580;7.756;2023-06-22T21:03:15;3.80;;;1.30;;
53271;SDS011;39160;48.580;7.756;2023-06-22T21:08:06;1.40;;;0.98;;
53271;SDS011;39160;48.580;7.756;2023-06-22T21:12:57;2.67;;;1.00;;
53271;SDS011;39160;48.580;7.756;2023-06-22T21:17:47;3.55;;;2.10;;
53271;SDS011;39160;48.580;7.756;2023-06-22T21:22:38;2.15;;;1.02;;
53271;SDS011;39160;48.580;7.756;2023-06-22T21:27:29;3.22;;;1.10;;
53271;SDS011;39160;48.580;7.756;2023-06-22T21:32:20;32.60;;;18.75;;
53271;SDS011;39160;48.580;7.756;2023-06-22T21:37:10;12.02;;;7.50;;
53271;SDS011;39160;48.580;7.756;2023-06-22T21:42:01;3.92;;;2.35;;
53271;SDS011;39160;48.580;7.756;2023-06-22T21:46:52;5.72;;;1.88;;
53271;SDS011;39160;48.580;7.756;2023-06-22T21:51:42;2.38;;;1.58;;
53271;SDS011;39160;48.580;7.756;2023-06-22T21:56:33;2.95;;;1.30;;
53271;SDS011;39160;48.580;7.756;2023-06-22T22:01:24;3.33;;;1.80;;
53271;SDS011;39160;48.580;7.756;2023-06-22T22:06:15;1.58;;;1.00;;
53271;SDS011;39160;48.580;7.756;2023-06-22T22:11:06;3.13;;;1.25;;
53271;SDS011;39160;48.580;7.756;2023-06-22T22:15:56;1.95;;;1.30;;
53271;SDS011;39160;48.580;7.756;2023-06-22T22:20:47;3.33;;;1.77;;
53271;SDS011;39160;48.580;7.756;2023-06-22T22:25:38;2.78;;;1.55;;
53271;SDS011;39160;48.580;7.756;2023-06-22T22:30:28;5.20;;;1.90;;
53271;SDS011;39160;48.580;7.756;2023-06-22T22:35:19;3.47;;;1.67;;
53271;SDS011;39160;48.580;7.756;2023-06-22T22:40:10;3.42;;;2.20;;
53271;SDS011;39160;48.580;7.756;2023-06-22T22:45:01;2.85;;;2.17;;
53271;SDS011;39160;48.580;7.756;2023-06-22T22:49:56;4.03;;;1.75;;
53271;SDS011;39160;48.580;7.756;2023-06-22T22:54:47;3.67;;;1.90;;
53271;SDS011;39160;48.580;7.756;2023-06-22T22:59:39;3.70;;;2.15;;
53271;SDS011;39160;48.580;7.756;2023-06-22T23:04:29;5.25;;;2.60;;
53271;SDS011;39160;48.580;7.756;2023-06-22T23:09:20;2.97;;;1.92;;
53271;SDS011;39160;48.580;7.756;2023-06-22T23:14:11;3.83;;;2.28;;
53271;SDS011;39160;48.580;7.756;2023-06-22T23:19:01;3.22;;;1.90;;
53271;SDS011;39160;48.580;7.756;2023-06-22T23:23:52;5.97;;;2.33;;
53271;SDS011;39160;48.580;7.756;2023-06-22T23:28:45;3.45;;;2.50;;
53271;SDS011;39160;48.580;7.756;2023-06-22T23:33:36;3.35;;;2.35;;
53271;SDS011;39160;48.580;7.756;2023-06-22T23:38:27;5.55;;;2.13;;
53271;SDS011;39160;48.580;7.756;2023-06-22T23:43:18;3.67;;;2.42;;
53271;SDS011;39160;48.580;7.756;2023-06-22T23:48:09;4.00;;;2.30;;
53271;SDS011;39160;48.580;7.756;2023-06-22T23:53:01;4.93;;;2.70;;
53271;SDS011;39160;48.580;7.756;2023-06-22T23:57:51;4.22;;;2.35;;
